TimeSAST,TemperatureF,Dew PointF,Humidity,Sea Level PressureIn,VisibilityMPH,Wind Direction,Wind SpeedMPH,Gust SpeedMPH,PrecipitationIn,Events,Conditions,WindDirDegrees,DateUTC
12:00 AM,50.0,46.4,87,30.27,-9999.0,North,3.5,-,N/A,,Clear,350,2012-10-11 22:00:00
1:00 AM,50.0,44.6,82,30.27,-9999.0,NNW,3.5,-,N/A,,Clear,340,2012-10-11 23:00:00
2:00 AM,48,44,81,30.27,12,North,4.6,,,,,10,2012-10-12 00:00:00
2:00 AM,48.2,44.6,87,30.24,-9999.0,North,3.5,-,N/A,,Clear,10,2012-10-12 00:00:00
3:00 AM,50.0,44.6,82,30.24,-9999.0,Variable,2.3,-,N/A,,Clear,0,2012-10-12 01:00:00
4:00 AM,46.4,42.8,87,30.21,-9999.0,NNW,4.6,-,N/A,,Clear,340,2012-10-12 02:00:00
5:00 AM,47,42,79,30.24,12,North,2.3,,,,,10,2012-10-12 03:00:00
5:00 AM,48.2,42.8,82,30.21,-9999.0,North,2.3,-,N/A,,Clear,10,2012-10-12 03:00:00
6:00 AM,46.4,42.8,87,30.21,-9999.0,North,3.5,-,N/A,,Clear,350,2012-10-12 04:00:00
7:00 AM,51.8,44.6,76,30.24,-9999.0,Variable,1.2,-,N/A,,Clear,0,2012-10-12 05:00:00
8:00 AM,58,47,58,30.26,12,,2.3,,,,,,2012-10-12 06:00:00
8:00 AM,59.0,48.2,67,30.24,-9999.0,Variable,2.3,-,N/A,,Clear,0,2012-10-12 06:00:00
9:00 AM,60.8,48.2,63,30.24,-9999.0,SE,3.5,-,N/A,,Clear,140,2012-10-12 07:00:00
10:00 AM,66.2,48.2,52,30.24,-9999.0,Variable,2.3,-,N/A,,Clear,0,2012-10-12 08:00:00
11:00 AM,66,52,50,30.23,12,SSE,6.9,,,,Scattered Clouds,160,2012-10-12 09:00:00
11:00 AM,66.2,51.8,60,30.21,6.2,SSE,6.9,-,N/A,,Partly Cloudy,160,2012-10-12 09:00:00
12:00 PM,66.2,50.0,56,30.21,-9999.0,SSE,8.1,-,N/A,,Clear,160,2012-10-12 10:00:00
1:00 PM,66.2,50.0,56,30.18,-9999.0,SSE,9.2,-,N/A,,Clear,150,2012-10-12 11:00:00
2:00 PM,66,52,50,30.17,19,SE,8.1,,,,,140,2012-10-12 12:00:00
2:00 PM,66.2,50.0,56,30.18,-9999.0,SE,8.1,-,N/A,,Clear,130,2012-10-12 12:00:00
3:00 PM,68.0,50.0,52,30.15,-9999.0,SSE,8.1,-,N/A,,Clear,150,2012-10-12 13:00:00
4:00 PM,64.4,50.0,59,30.15,-9999.0,SE,11.5,-,N/A,,Clear,140,2012-10-12 14:00:00
5:00 PM,64,50,49,30.17,19,SE,8.1,,,,,130,2012-10-12 15:00:00
5:00 PM,64.4,50.0,59,30.15,-9999.0,SE,8.1,-,N/A,,Clear,130,2012-10-12 15:00:00
6:00 PM,60.8,50.0,68,30.18,-9999.0,SE,4.6,-,N/A,,Clear,130,2012-10-12 16:00:00
7:00 PM,59.0,50.0,72,30.18,-9999.0,ESE,3.5,-,N/A,,Clear,120,2012-10-12 17:00:00
8:00 PM,56,50,73,30.19,12,ENE,3.5,,,,,60,2012-10-12 18:00:00
8:00 PM,55.4,50.0,82,30.18,-9999.0,ENE,3.5,-,N/A,,Clear,60,2012-10-12 18:00:00
9:00 PM,53.6,48.2,82,30.18,-9999.0,NNE,3.5,-,N/A,,Clear,20,2012-10-12 19:00:00
10:00 PM,51.8,48.2,88,30.18,-9999.0,NW,3.5,-,N/A,,Clear,320,2012-10-12 20:00:00
11:00 PM,50.0,46.4,87,30.18,-9999.0,West,4.6,-,N/A,,Clear,270,2012-10-12 21:00:00